createdAt,value
2019-02-16T00:00:10.524Z,7.69
2019-02-16T00:01:10.482Z,7.63
2019-02-16T00:02:10.484Z,7.67
2019-02-16T00:03:10.451Z,7.54
2019-02-16T00:04:10.439Z,7.58
2019-02-16T00:05:10.428Z,7.57
2019-02-16T00:06:10.427Z,7.43
2019-02-16T00:07:10.417Z,7.43
2019-02-16T00:08:10.451Z,7.45
2019-02-16T00:09:10.375Z,7.51
2019-02-16T00:10:10.378Z,7.56
2019-02-16T00:11:10.358Z,7.53
2019-02-16T00:12:10.354Z,7.51
2019-02-16T00:13:10.357Z,7.50
2019-02-16T00:14:10.321Z,7.45
2019-02-16T00:15:10.313Z,7.45
2019-02-16T00:16:10.309Z,7.43
2019-02-16T00:17:10.291Z,7.47
2019-02-16T00:18:10.302Z,7.43
2019-02-16T00:19:10.278Z,7.40
2019-02-16T00:20:10.261Z,7.43
2019-02-16T00:21:10.245Z,7.42
2019-02-16T00:22:10.231Z,7.40
2019-02-16T00:23:10.275Z,7.47
2019-02-16T00:24:10.225Z,7.48
2019-02-16T00:25:10.214Z,7.39
2019-02-16T00:26:10.192Z,7.45
2019-02-16T00:27:10.248Z,7.45
2019-02-16T00:28:10.166Z,7.43
2019-02-16T00:29:10.166Z,7.38
2019-02-16T00:30:10.151Z,7.39
2019-02-16T00:31:10.135Z,7.29
2019-02-16T00:32:10.133Z,7.28
2019-02-16T00:33:10.112Z,7.33
2019-02-16T00:34:10.136Z,7.33
2019-02-16T00:35:10.105Z,7.36
2019-02-16T00:36:10.086Z,7.35
2019-02-16T00:37:10.071Z,7.25
2019-02-16T00:38:10.059Z,7.25
2019-02-16T00:39:10.048Z,7.25
2019-02-16T00:40:10.041Z,7.32
2019-02-16T00:41:10.045Z,7.29
2019-02-16T00:42:10.051Z,7.32
2019-02-16T00:43:10.002Z,7.24
2019-02-16T00:44:09.989Z,7.28
2019-02-16T00:45:09.990Z,7.18
2019-02-16T00:46:09.994Z,7.20
2019-02-16T00:47:09.977Z,7.18
2019-02-16T00:48:09.952Z,7.17
2019-02-16T00:49:09.935Z,7.15
2019-02-16T00:50:09.932Z,7.15
2019-02-16T00:51:13.522Z,7.21
2019-02-16T00:52:09.918Z,7.21
2019-02-16T00:53:09.907Z,7.10
2019-02-16T00:54:09.888Z,7.10
2019-02-16T00:55:09.871Z,7.07
2019-02-16T00:56:09.867Z,7.11
2019-02-16T00:57:09.849Z,7.06
2019-02-16T00:58:09.892Z,7.06
2019-02-16T00:59:09.827Z,7.06
2019-02-16T01:00:09.821Z,7.03
2019-02-16T01:01:09.824Z,6.92
2019-02-16T01:02:09.797Z,6.87
2019-02-16T01:03:09.797Z,6.92
2019-02-16T01:04:09.921Z,6.95
2019-02-16T01:05:09.765Z,6.95
2019-02-16T01:06:09.747Z,6.89
2019-02-16T01:07:09.745Z,6.75
2019-02-16T01:08:09.732Z,6.77
2019-02-16T01:09:09.723Z,6.81
2019-02-16T01:10:09.703Z,6.78
2019-02-16T01:11:09.701Z,6.75
2019-02-16T01:12:09.684Z,6.82
2019-02-16T01:13:09.687Z,6.82
2019-02-16T01:14:09.692Z,6.81
2019-02-16T01:15:09.668Z,6.84
2019-02-16T01:16:09.641Z,6.81
2019-02-16T01:17:09.629Z,6.77
2019-02-16T01:18:09.694Z,6.72
2019-02-16T01:19:09.702Z,6.69
2019-02-16T01:20:09.622Z,6.67
2019-02-16T01:21:09.596Z,6.67
2019-02-16T01:22:09.622Z,6.70
2019-02-16T01:23:09.610Z,6.59
2019-02-16T01:24:09.566Z,6.67
2019-02-16T01:25:09.544Z,6.49
2019-02-16T01:26:09.634Z,6.59
2019-02-16T01:27:09.535Z,6.57
2019-02-16T01:28:09.540Z,6.59
2019-02-16T01:29:09.501Z,6.57
2019-02-16T01:30:09.498Z,6.59
2019-02-16T01:31:09.484Z,6.62
2019-02-16T01:32:09.490Z,6.51
2019-02-16T01:33:09.472Z,6.56
2019-02-16T01:34:09.446Z,6.52
2019-02-16T01:35:09.436Z,6.54
2019-02-16T01:36:09.480Z,6.49
2019-02-16T01:37:09.429Z,6.41
2019-02-16T01:38:09.456Z,6.45
2019-02-16T01:39:09.396Z,6.42
2019-02-16T01:40:09.388Z,6.31
2019-02-16T01:41:09.373Z,6.30
2019-02-16T01:42:09.369Z,6.36
2019-02-16T01:43:09.363Z,6.41
2019-02-16T01:44:09.361Z,6.28
2019-02-16T01:45:09.335Z,6.28
2019-02-16T01:46:09.323Z,6.30
2019-02-16T01:47:09.309Z,6.35
2019-02-16T01:48:09.304Z,6.24
2019-02-16T01:49:09.293Z,6.27
2019-02-16T01:50:09.273Z,6.28
2019-02-16T01:51:09.295Z,6.26
2019-02-16T01:52:09.245Z,6.20
2019-02-16T01:53:09.239Z,6.30
2019-02-16T01:54:09.237Z,6.20
2019-02-16T01:55:09.237Z,6.27
2019-02-16T01:56:09.218Z,6.24
2019-02-16T01:57:09.212Z,6.17
2019-02-16T01:58:09.186Z,6.16
2019-02-16T01:59:09.235Z,6.19
2019-02-16T02:00:09.174Z,6.12
2019-02-16T02:01:09.173Z,6.17
2019-02-16T02:02:09.146Z,6.14
2019-02-16T02:03:09.134Z,6.16
2019-02-16T02:04:09.124Z,6.07
2019-02-16T02:05:09.131Z,6.11
2019-02-16T02:06:09.112Z,6.05
2019-02-16T02:07:09.112Z,5.97
2019-02-16T02:08:09.142Z,5.93
2019-02-16T02:09:09.066Z,6.01
2019-02-16T02:10:09.068Z,5.97
2019-02-16T02:11:09.048Z,5.94
2019-02-16T02:12:09.042Z,5.97
2019-02-16T02:13:09.020Z,5.90
2019-02-16T02:14:09.012Z,5.84
2019-02-16T02:15:09.031Z,5.87
2019-02-16T02:16:08.992Z,5.86
2019-02-16T02:17:08.982Z,5.80
2019-02-16T02:18:08.982Z,5.71
2019-02-16T02:19:08.955Z,5.69
2019-02-16T02:20:08.936Z,5.68
2019-02-16T02:21:08.944Z,5.64
2019-02-16T02:22:08.924Z,5.64
2019-02-16T02:23:08.926Z,5.61
2019-02-16T02:24:08.896Z,5.61
2019-02-16T02:25:08.894Z,5.56
2019-02-16T02:26:08.903Z,5.50
2019-02-16T02:27:08.967Z,5.46
2019-02-16T02:28:08.863Z,5.50
2019-02-16T02:29:08.891Z,5.46
2019-02-16T02:30:08.840Z,5.44
2019-02-16T02:31:08.829Z,5.30
2019-02-16T02:32:08.824Z,5.33
2019-02-16T02:33:08.803Z,5.30
2019-02-16T02:34:08.823Z,5.32
2019-02-16T02:35:08.786Z,5.33
2019-02-16T02:36:08.764Z,5.21
2019-02-16T02:37:08.758Z,5.18
2019-02-16T02:38:08.756Z,5.20
2019-02-16T02:39:08.745Z,5.20
2019-02-16T02:40:08.729Z,5.21
2019-02-16T02:41:08.758Z,5.23
2019-02-16T02:42:08.727Z,5.15
2019-02-16T02:43:08.693Z,5.15
2019-02-16T02:44:08.683Z,5.18
2019-02-16T02:45:08.700Z,5.18
2019-02-16T02:46:08.657Z,5.11
2019-02-16T02:47:08.658Z,5.07
2019-02-16T02:48:08.643Z,5.07
2019-02-16T02:49:08.624Z,4.94
2019-02-16T02:50:08.627Z,5.02
2019-02-16T02:51:08.610Z,5.04
2019-02-16T02:52:08.599Z,4.97
2019-02-16T02:53:08.579Z,4.90
2019-02-16T02:54:08.575Z,4.97
2019-02-16T02:55:08.565Z,4.89
2019-02-16T02:56:08.560Z,4.96
2019-02-16T02:57:08.545Z,4.97
2019-02-16T02:58:08.548Z,4.96
2019-02-16T02:59:08.582Z,4.90
2019-02-16T03:00:08.506Z,4.94
2019-02-16T03:01:08.510Z,4.92
2019-02-16T03:02:08.488Z,4.82
2019-02-16T03:03:08.491Z,4.82
2019-02-16T03:04:08.478Z,4.86
2019-02-16T03:05:08.467Z,4.82
2019-02-16T03:06:08.443Z,4.78
2019-02-16T03:07:08.426Z,4.71
2019-02-16T03:08:08.458Z,4.73
2019-02-16T03:09:08.411Z,4.67
2019-02-16T03:10:08.396Z,4.67
2019-02-16T03:11:08.388Z,4.70
2019-02-16T03:12:08.414Z,4.70
2019-02-16T03:13:08.424Z,4.73
2019-02-16T03:14:08.360Z,4.62
2019-02-16T03:15:08.358Z,4.63
2019-02-16T03:16:08.329Z,4.60
2019-02-16T03:17:08.363Z,4.58
2019-02-16T03:18:08.307Z,4.50
2019-02-16T03:19:08.327Z,4.52
2019-02-16T03:20:08.299Z,4.55
2019-02-16T03:21:08.300Z,4.55
2019-02-16T03:22:08.288Z,4.53
2019-02-16T03:23:08.260Z,4.49
2019-02-16T03:24:08.247Z,4.49
2019-02-16T03:25:08.233Z,4.45
2019-02-16T03:26:08.231Z,4.44
2019-02-16T03:27:08.217Z,4.50
2019-02-16T03:28:08.203Z,4.44
2019-02-16T03:29:08.194Z,4.45
2019-02-16T03:30:08.183Z,4.41
2019-02-16T03:31:08.177Z,4.37
2019-02-16T03:32:08.186Z,4.35
2019-02-16T03:33:08.169Z,4.34
2019-02-16T03:34:08.183Z,4.30
2019-02-16T03:35:08.129Z,4.30
2019-02-16T03:36:08.110Z,4.34
2019-02-16T03:37:08.104Z,4.28
2019-02-16T03:38:08.103Z,4.24
2019-02-16T03:39:08.088Z,4.24
2019-02-16T03:40:08.078Z,4.30
2019-02-16T03:41:08.070Z,4.23
2019-02-16T03:42:08.064Z,4.19
2019-02-16T03:43:08.043Z,4.14
2019-02-16T03:44:08.078Z,4.24
2019-02-16T03:45:08.026Z,4.14
2019-02-16T03:46:08.010Z,4.16
2019-02-16T03:47:07.994Z,4.19
2019-02-16T03:48:08.008Z,4.16
2019-02-16T03:49:07.974Z,4.20
2019-02-16T03:50:07.979Z,4.13
2019-02-16T03:51:08.015Z,4.16
2019-02-16T03:52:13.727Z,4.26
2019-02-16T03:53:08.939Z,4.31
2019-02-16T03:54:07.922Z,4.30
2019-02-16T03:55:07.917Z,4.31
2019-02-16T03:56:07.897Z,4.28
2019-02-16T03:57:07.896Z,4.32
2019-02-16T03:58:07.877Z,4.30
2019-02-16T03:59:07.971Z,4.35
2019-02-16T04:00:07.861Z,4.37
2019-02-16T04:01:07.851Z,4.55
2019-02-16T04:02:07.858Z,4.50
2019-02-16T04:03:07.824Z,4.50
2019-02-16T04:04:07.820Z,4.56
2019-02-16T04:05:07.859Z,4.56
2019-02-16T04:06:07.861Z,4.55
2019-02-16T04:07:07.780Z,4.55
2019-02-16T04:08:07.763Z,4.68
2019-02-16T04:09:07.764Z,4.71
2019-02-16T04:10:07.746Z,4.73
2019-02-16T04:11:07.738Z,4.73
2019-02-16T04:12:07.745Z,4.78
2019-02-16T04:13:07.712Z,4.77
2019-02-16T04:14:07.706Z,4.82
2019-02-16T04:15:07.694Z,4.74
2019-02-16T04:16:07.681Z,4.84
2019-02-16T04:17:07.678Z,4.75
2019-02-16T04:18:07.675Z,4.80
2019-02-16T04:19:07.653Z,4.87
2019-02-16T04:20:07.652Z,4.78
2019-02-16T04:21:07.663Z,4.90
2019-02-16T04:22:07.629Z,4.82
2019-02-16T04:23:07.611Z,4.82
2019-02-16T04:24:07.604Z,4.86
2019-02-16T04:25:07.596Z,4.78
2019-02-16T04:26:07.574Z,4.75
2019-02-16T04:27:07.572Z,4.74
2019-02-16T04:28:07.554Z,4.75
2019-02-16T04:29:07.548Z,4.77
2019-02-16T04:30:07.535Z,4.82
2019-02-16T04:31:07.545Z,4.89
2019-02-16T04:32:07.505Z,4.90
2019-02-16T04:33:07.497Z,4.90
2019-02-16T04:34:07.532Z,4.80
2019-02-16T04:35:07.480Z,4.73
2019-02-16T04:36:07.470Z,4.82
2019-02-16T04:37:07.456Z,4.78
2019-02-16T04:38:07.442Z,4.67
2019-02-16T04:39:07.425Z,4.73
2019-02-16T04:40:07.422Z,4.66
2019-02-16T04:41:07.408Z,4.70
2019-02-16T04:42:07.409Z,4.58
2019-02-16T04:43:07.385Z,4.70
2019-02-16T04:44:07.379Z,4.67
2019-02-16T04:45:07.371Z,4.67
2019-02-16T04:46:07.364Z,4.63
2019-02-16T04:47:07.344Z,4.50
2019-02-16T04:48:07.406Z,4.53
2019-02-16T04:49:07.337Z,4.55
2019-02-16T04:50:07.316Z,4.58
2019-02-16T04:51:07.310Z,4.55
2019-02-16T04:52:07.301Z,4.52
2019-02-16T04:53:07.284Z,4.56
2019-02-16T04:54:07.270Z,4.52
2019-02-16T04:55:07.275Z,4.50
2019-02-16T04:56:07.247Z,4.53
2019-02-16T04:57:07.254Z,4.53
2019-02-16T04:58:07.235Z,4.50
2019-02-16T04:59:07.220Z,4.53
2019-02-16T05:00:07.212Z,4.52
2019-02-16T05:01:07.195Z,4.58
2019-02-16T05:02:07.184Z,4.56
2019-02-16T05:03:07.229Z,4.50
2019-02-16T05:04:07.199Z,4.52
2019-02-16T05:05:07.154Z,4.49
2019-02-16T05:06:07.149Z,4.68
2019-02-16T05:07:07.126Z,4.70
2019-02-16T05:08:07.125Z,4.66
2019-02-16T05:09:07.125Z,4.62
2019-02-16T05:10:07.101Z,4.73
2019-02-16T05:11:07.082Z,4.62
2019-02-16T05:12:07.101Z,4.63
2019-02-16T05:13:07.087Z,4.56
2019-02-16T05:14:07.063Z,4.63
2019-02-16T05:15:07.055Z,4.56
2019-02-16T05:16:07.033Z,4.67
2019-02-16T05:17:07.027Z,4.70
2019-02-16T05:18:07.011Z,4.66
2019-02-16T05:19:07.003Z,4.67
2019-02-16T05:20:07.010Z,4.67
2019-02-16T05:21:06.974Z,4.63
2019-02-16T05:22:06.966Z,4.66
2019-02-16T05:23:06.961Z,4.63
2019-02-16T05:24:06.953Z,4.74
2019-02-16T05:25:06.950Z,4.68
2019-02-16T05:26:06.950Z,4.59
2019-02-16T05:27:06.922Z,4.66
2019-02-16T05:28:06.903Z,4.56
2019-02-16T05:29:06.902Z,4.55
2019-02-16T05:30:06.903Z,4.56
2019-02-16T05:31:06.878Z,4.52
2019-02-16T05:32:06.875Z,4.53
2019-02-16T05:33:06.864Z,4.53
2019-02-16T05:34:06.847Z,4.50
2019-02-16T05:35:06.841Z,4.49
2019-02-16T05:36:06.825Z,4.45
2019-02-16T05:37:06.857Z,4.53
2019-02-16T05:38:06.814Z,4.52
2019-02-16T05:39:06.791Z,4.49
2019-02-16T05:40:06.783Z,4.45
2019-02-16T05:41:06.769Z,4.41
2019-02-16T05:42:06.756Z,4.44
2019-02-16T05:43:06.739Z,4.52
2019-02-16T05:44:06.739Z,4.41
2019-02-16T05:45:06.725Z,4.37
2019-02-16T05:46:06.727Z,4.44
2019-02-16T05:47:06.731Z,4.42
2019-02-16T05:48:06.692Z,4.34
2019-02-16T05:49:06.688Z,4.34
2019-02-16T05:50:06.663Z,4.30
2019-02-16T05:51:06.657Z,4.35
2019-02-16T05:52:06.654Z,4.34
2019-02-16T05:53:06.636Z,4.35
2019-02-16T05:54:06.619Z,4.41
2019-02-16T05:55:06.617Z,4.32
2019-02-16T05:56:06.599Z,4.37
2019-02-16T05:57:06.595Z,4.34
2019-02-16T05:58:06.572Z,4.40
2019-02-16T05:59:08.206Z,4.34
2019-02-16T06:00:06.565Z,4.37
2019-02-16T06:01:06.585Z,4.32
2019-02-16T06:02:06.539Z,4.31
2019-02-16T06:03:06.527Z,4.31
2019-02-16T06:04:06.522Z,4.34
2019-02-16T06:05:06.496Z,4.34
2019-02-16T06:06:06.501Z,4.32
2019-02-16T06:07:06.481Z,4.32
2019-02-16T06:08:06.473Z,4.34
2019-02-16T06:09:06.470Z,4.38
2019-02-16T06:10:06.461Z,4.37
2019-02-16T06:11:06.453Z,4.35
2019-02-16T06:12:06.437Z,4.32
2019-02-16T06:13:06.410Z,4.30
2019-02-16T06:14:06.398Z,4.32
2019-02-16T06:15:06.463Z,4.28
2019-02-16T06:16:06.400Z,4.31
2019-02-16T06:17:06.372Z,4.31
2019-02-16T06:18:06.372Z,4.26
2019-02-16T06:19:06.393Z,4.26
2019-02-16T06:20:06.335Z,4.26
2019-02-16T06:21:06.341Z,4.16
2019-02-16T06:22:06.323Z,4.23
2019-02-16T06:23:06.312Z,4.22
2019-02-16T06:24:06.309Z,4.16
2019-02-16T06:25:06.295Z,4.17
2019-02-16T06:26:06.293Z,4.20
2019-02-16T06:27:06.323Z,4.16
2019-02-16T06:28:06.251Z,4.16
2019-02-16T06:29:06.249Z,4.17
2019-02-16T06:30:06.230Z,4.16
2019-02-16T06:31:06.219Z,4.19
2019-02-16T06:32:06.248Z,4.13
2019-02-16T06:33:06.199Z,4.13
2019-02-16T06:34:06.193Z,4.08
2019-02-16T06:35:07.189Z,4.14
2019-02-16T06:36:06.172Z,4.10
2019-02-16T06:37:06.160Z,4.13
2019-02-16T06:38:06.149Z,4.12
2019-02-16T06:39:06.216Z,4.12
2019-02-16T06:40:06.128Z,4.08
2019-02-16T06:41:06.130Z,4.14
2019-02-16T06:42:06.102Z,4.06
2019-02-16T06:43:06.101Z,4.12
2019-02-16T06:44:06.092Z,4.08
2019-02-16T06:45:06.120Z,4.06
2019-02-16T06:46:06.070Z,4.08
2019-02-16T06:47:06.070Z,4.13
2019-02-16T06:48:06.047Z,4.19
2019-02-16T06:49:06.024Z,4.10
2019-02-16T06:50:06.020Z,4.17
2019-02-16T06:51:06.009Z,4.16
2019-02-16T06:52:06.012Z,4.12
2019-02-16T06:53:12.977Z,4.23
2019-02-16T06:54:07.026Z,4.28
2019-02-16T06:55:05.998Z,4.31
2019-02-16T06:56:06.064Z,4.31
2019-02-16T06:57:05.951Z,4.26
2019-02-16T06:58:05.935Z,4.30
2019-02-16T06:59:05.939Z,4.35
2019-02-16T07:00:05.906Z,4.35
2019-02-16T07:01:05.897Z,4.37
2019-02-16T07:02:05.904Z,4.32
2019-02-16T07:03:05.877Z,4.34
2019-02-16T07:04:05.905Z,4.35
2019-02-16T07:05:05.861Z,4.38
2019-02-16T07:06:05.846Z,4.44
2019-02-16T07:07:05.837Z,4.53
2019-02-16T07:08:05.834Z,4.49
2019-02-16T07:09:05.823Z,4.59
2019-02-16T07:10:05.810Z,4.52
2019-02-16T07:11:05.793Z,4.53
2019-02-16T07:12:05.778Z,4.58
2019-02-16T07:13:05.773Z,4.59
2019-02-16T07:14:05.763Z,4.56
2019-02-16T07:15:05.749Z,4.59
2019-02-16T07:16:05.750Z,4.67
2019-02-16T07:17:05.727Z,4.70
2019-02-16T07:18:05.724Z,4.75
2019-02-16T07:19:05.714Z,4.63
2019-02-16T07:20:07.761Z,4.73
2019-02-16T07:21:05.718Z,4.80
2019-02-16T07:22:05.682Z,4.80
2019-02-16T07:23:05.669Z,4.73
2019-02-16T07:24:05.654Z,4.78
2019-02-16T07:25:05.642Z,4.78
2019-02-16T07:26:05.630Z,4.70
2019-02-16T07:27:05.626Z,4.74
2019-02-16T07:28:05.652Z,4.74
2019-02-16T07:29:05.646Z,4.80
2019-02-16T07:30:05.590Z,4.77
2019-02-16T07:31:05.573Z,4.75
2019-02-16T07:32:05.636Z,4.67
2019-02-16T07:33:05.568Z,4.77
2019-02-16T07:34:05.549Z,4.75
2019-02-16T07:35:05.534Z,4.77
2019-02-16T07:36:05.523Z,4.77
2019-02-16T07:37:05.512Z,4.90
2019-02-16T07:38:05.511Z,4.99
2019-02-16T07:39:05.501Z,4.94
2019-02-16T07:40:05.482Z,5.04
2019-02-16T07:41:05.466Z,5.05
2019-02-16T07:42:05.458Z,5.10
2019-02-16T07:43:05.455Z,5.07
2019-02-16T07:44:05.442Z,5.12
2019-02-16T07:45:05.578Z,5.12
2019-02-16T07:46:05.413Z,5.12
2019-02-16T07:47:05.405Z,5.14
2019-02-16T07:48:05.397Z,5.11
2019-02-16T07:49:05.381Z,5.10
2019-02-16T07:50:05.390Z,5.08
2019-02-16T07:51:05.364Z,5.20
2019-02-16T07:52:05.350Z,5.20
2019-02-16T07:53:05.355Z,5.17
2019-02-16T07:54:05.330Z,5.23
2019-02-16T07:55:05.393Z,5.30
2019-02-16T07:56:05.306Z,5.29
2019-02-16T07:57:05.375Z,5.33
2019-02-16T07:58:05.316Z,5.43
2019-02-16T07:59:05.282Z,5.43
2019-02-16T08:00:05.265Z,5.48
2019-02-16T08:01:05.255Z,5.53
2019-02-16T08:02:05.241Z,5.53
2019-02-16T08:03:05.239Z,5.68
2019-02-16T08:04:05.227Z,5.65
2019-02-16T08:05:05.214Z,5.72
2019-02-16T08:06:05.194Z,5.71
2019-02-16T08:07:05.190Z,5.84
2019-02-16T08:08:05.171Z,5.80
2019-02-16T08:09:05.169Z,5.86
2019-02-16T08:10:05.159Z,5.97
2019-02-16T08:11:05.142Z,5.91
2019-02-16T08:12:05.134Z,5.97
2019-02-16T08:13:05.139Z,5.97
2019-02-16T08:14:05.109Z,6.05
2019-02-16T08:15:05.104Z,6.05
2019-02-16T08:16:05.109Z,6.02
2019-02-16T08:17:05.119Z,6.09
2019-02-16T08:18:05.122Z,6.12
2019-02-16T08:19:05.072Z,6.16
2019-02-16T08:20:05.078Z,6.14
2019-02-16T08:21:05.045Z,6.27
2019-02-16T08:22:05.113Z,6.28
2019-02-16T08:23:05.016Z,6.30
2019-02-16T08:24:05.001Z,6.30
2019-02-16T08:25:04.987Z,6.26
2019-02-16T08:26:04.968Z,6.27
2019-02-16T08:27:05.024Z,6.36
2019-02-16T08:28:04.967Z,6.31
2019-02-16T08:29:04.943Z,6.46
2019-02-16T08:30:04.955Z,6.49
2019-02-16T08:31:04.925Z,6.44
2019-02-16T08:32:04.906Z,6.49
2019-02-16T08:33:05.900Z,6.60
2019-02-16T08:34:04.887Z,6.56
2019-02-16T08:35:04.887Z,6.56
2019-02-16T08:36:04.858Z,6.66
2019-02-16T08:37:04.893Z,6.64
2019-02-16T08:38:04.839Z,6.69
2019-02-16T08:39:04.835Z,6.77
2019-02-16T08:40:04.822Z,6.82
2019-02-16T08:41:04.862Z,6.78
2019-02-16T08:42:04.825Z,6.95
2019-02-16T08:43:04.788Z,6.93
2019-02-16T08:44:04.785Z,7.05
2019-02-16T08:45:04.763Z,7.06
2019-02-16T08:46:04.782Z,7.07
2019-02-16T08:47:04.751Z,7.11
2019-02-16T08:48:04.738Z,7.11
2019-02-16T08:49:04.756Z,7.10
2019-02-16T08:50:04.712Z,7.20
2019-02-16T08:51:04.697Z,7.18
2019-02-16T08:52:04.692Z,7.20
2019-02-16T08:53:04.675Z,7.21
2019-02-16T08:54:04.674Z,7.24
2019-02-16T08:55:04.661Z,7.35
2019-02-16T08:56:04.656Z,7.39
2019-02-16T08:57:04.660Z,7.39
2019-02-16T08:58:04.632Z,7.48
2019-02-16T08:59:04.717Z,7.50
2019-02-16T09:00:04.610Z,7.56
2019-02-16T09:01:04.595Z,7.61
2019-02-16T09:02:04.593Z,7.61
2019-02-16T09:03:04.586Z,7.69
2019-02-16T09:04:04.573Z,7.69
2019-02-16T09:05:04.557Z,7.80
2019-02-16T09:06:04.566Z,7.83
2019-02-16T09:07:04.535Z,7.90
2019-02-16T09:08:04.528Z,7.97
2019-02-16T09:09:04.513Z,7.91
2019-02-16T09:10:04.513Z,8.01
2019-02-16T09:11:04.537Z,8.05
2019-02-16T09:12:05.916Z,8.06
2019-02-16T09:13:04.496Z,8.09
2019-02-16T09:14:04.486Z,8.03
2019-02-16T09:15:04.447Z,8.15
2019-02-16T09:16:04.425Z,8.33
2019-02-16T09:17:04.427Z,8.30
2019-02-16T09:18:04.535Z,8.31
2019-02-16T09:19:04.391Z,8.45
2019-02-16T09:20:04.385Z,8.42
2019-02-16T09:21:04.381Z,8.36
2019-02-16T09:22:04.358Z,8.58
2019-02-16T09:23:04.352Z,8.56
2019-02-16T09:24:04.334Z,8.64
2019-02-16T09:25:04.333Z,8.64
2019-02-16T09:26:04.323Z,8.71
2019-02-16T09:27:04.436Z,8.74
2019-02-16T09:28:04.289Z,8.69
2019-02-16T09:29:04.288Z,8.74
2019-02-16T09:30:04.285Z,8.82
2019-02-16T09:31:04.260Z,8.88
2019-02-16T09:32:04.268Z,8.85
2019-02-16T09:33:04.236Z,8.92
2019-02-16T09:34:04.251Z,8.88
2019-02-16T09:35:04.218Z,8.92
2019-02-16T09:36:04.200Z,9.04
2019-02-16T09:37:04.219Z,9.00
2019-02-16T09:38:04.224Z,9.11
2019-02-16T09:39:04.175Z,9.22
2019-02-16T09:40:04.181Z,9.21
2019-02-16T09:41:04.151Z,9.14
2019-02-16T09:42:04.147Z,9.18
2019-02-16T09:43:04.150Z,9.25
2019-02-16T09:44:04.179Z,9.36
2019-02-16T09:45:04.201Z,9.28
2019-02-16T09:46:04.105Z,9.39
2019-02-16T09:47:04.094Z,9.48
2019-02-16T09:48:04.083Z,9.41
2019-02-16T09:49:04.117Z,9.48
2019-02-16T09:50:04.054Z,9.54
2019-02-16T09:51:04.047Z,9.58
2019-02-16T09:52:04.058Z,9.55
2019-02-16T09:53:04.032Z,9.64
2019-02-16T09:54:08.485Z,9.58
2019-02-16T09:55:04.036Z,9.76
2019-02-16T09:56:03.992Z,9.77
2019-02-16T09:57:03.999Z,9.83
2019-02-16T09:58:04.045Z,9.86
2019-02-16T09:59:03.965Z,9.86
2019-02-16T10:00:03.959Z,9.87
2019-02-16T10:01:03.943Z,9.89
2019-02-16T10:02:03.927Z,9.91
2019-02-16T10:03:03.911Z,9.89
2019-02-16T10:04:03.926Z,9.92
2019-02-16T10:05:03.930Z,10.05
2019-02-16T10:06:03.915Z,10.12
2019-02-16T10:07:03.868Z,10.09
2019-02-16T10:08:04.005Z,10.17
2019-02-16T10:09:03.847Z,10.15
2019-02-16T10:10:03.836Z,10.16
2019-02-16T10:11:03.823Z,10.20
2019-02-16T10:12:03.854Z,10.28
2019-02-16T10:13:03.807Z,10.34
2019-02-16T10:14:03.805Z,10.38
2019-02-16T10:15:03.789Z,10.30
2019-02-16T10:16:03.810Z,10.42
2019-02-16T10:17:03.798Z,10.41
2019-02-16T10:18:03.756Z,10.38
2019-02-16T10:19:03.828Z,10.35
2019-02-16T10:20:03.768Z,10.41
2019-02-16T10:21:03.733Z,10.49
2019-02-16T10:22:03.719Z,10.54
2019-02-16T10:23:03.711Z,10.49
2019-02-16T10:24:03.742Z,10.56
2019-02-16T10:25:03.675Z,10.56
2019-02-16T10:26:03.723Z,10.56
2019-02-16T10:27:03.648Z,10.59
2019-02-16T10:28:04.385Z,10.60
2019-02-16T10:29:03.669Z,10.54
2019-02-16T10:30:03.644Z,10.61
2019-02-16T10:31:03.613Z,10.71
2019-02-16T10:32:03.592Z,10.74
2019-02-16T10:33:03.594Z,10.74
2019-02-16T10:34:03.576Z,10.75
2019-02-16T10:35:03.627Z,10.75
2019-02-16T10:36:03.566Z,10.82
2019-02-16T10:37:03.576Z,10.84
2019-02-16T10:38:03.523Z,10.93
2019-02-16T10:39:03.519Z,10.89
2019-02-16T10:40:03.516Z,10.94
2019-02-16T10:41:03.493Z,11.02
2019-02-16T10:42:03.476Z,10.99
2019-02-16T10:43:03.480Z,11.10
2019-02-16T10:44:03.453Z,11.10
2019-02-16T10:45:03.451Z,11.15
2019-02-16T10:46:03.481Z,11.22
2019-02-16T10:47:03.438Z,11.25
2019-02-16T10:48:03.415Z,11.29
2019-02-16T10:49:03.399Z,11.35
2019-02-16T10:50:03.389Z,11.25
2019-02-16T10:51:03.394Z,11.30
2019-02-16T10:52:03.382Z,11.27
2019-02-16T10:53:03.359Z,11.35
2019-02-16T10:54:03.341Z,11.29
2019-02-16T10:55:03.332Z,11.44
2019-02-16T10:56:03.332Z,11.47
2019-02-16T10:57:03.323Z,11.44
2019-02-16T10:58:03.299Z,11.51
2019-02-16T10:59:03.289Z,11.55
2019-02-16T11:00:03.330Z,11.59
2019-02-16T11:01:03.279Z,11.75
2019-02-16T11:02:03.363Z,11.78
2019-02-16T11:03:03.271Z,11.73
2019-02-16T11:04:03.268Z,11.73
2019-02-16T11:05:03.286Z,11.73
2019-02-16T11:06:03.218Z,11.69
2019-02-16T11:07:03.218Z,11.75
2019-02-16T11:08:03.216Z,11.70
2019-02-16T11:09:03.189Z,11.81
2019-02-16T11:10:03.206Z,11.80
2019-02-16T11:11:03.171Z,11.80
2019-02-16T11:12:03.148Z,11.81
2019-02-16T11:13:03.147Z,11.83
2019-02-16T11:14:03.138Z,11.83
2019-02-16T11:15:03.116Z,11.86
2019-02-16T11:16:03.105Z,11.87
2019-02-16T11:17:03.099Z,11.66
2019-02-16T11:18:03.078Z,11.87
2019-02-16T11:19:03.077Z,12.00
2019-02-16T11:20:03.082Z,12.09
2019-02-16T11:21:03.111Z,12.22
2019-02-16T11:22:04.512Z,12.20
2019-02-16T11:23:03.036Z,12.13
2019-02-16T11:24:03.020Z,12.20
2019-02-16T11:25:03.021Z,12.12
2019-02-16T11:26:03.002Z,12.07
2019-02-16T11:27:02.979Z,12.22
2019-02-16T11:28:02.994Z,12.09
2019-02-16T11:29:02.958Z,12.07
2019-02-16T11:30:02.951Z,12.04
2019-02-16T11:31:02.999Z,12.09
2019-02-16T11:32:02.936Z,12.12
2019-02-16T11:33:02.923Z,12.13
2019-02-16T11:34:02.910Z,12.13
2019-02-16T11:35:02.901Z,12.25
2019-02-16T11:36:02.903Z,12.31
2019-02-16T11:37:02.956Z,12.45
2019-02-16T11:38:02.889Z,12.54
2019-02-16T11:39:02.956Z,12.54
2019-02-16T11:40:02.839Z,12.50
2019-02-16T11:41:02.834Z,12.64
2019-02-16T11:42:02.828Z,12.67
2019-02-16T11:43:02.825Z,12.65
2019-02-16T11:44:02.863Z,12.65
2019-02-16T11:45:02.789Z,12.64
2019-02-16T11:46:02.793Z,12.68
2019-02-16T11:47:02.764Z,12.62
2019-02-16T11:48:02.755Z,12.50
2019-02-16T11:49:02.738Z,12.53
2019-02-16T11:50:02.729Z,12.60
2019-02-16T11:51:02.741Z,12.47
2019-02-16T11:52:02.754Z,12.53
2019-02-16T11:53:02.702Z,12.55
2019-02-16T11:54:02.717Z,12.49
2019-02-16T11:55:02.668Z,12.55
2019-02-16T11:56:02.660Z,12.55
2019-02-16T11:57:02.670Z,12.58
2019-02-16T11:58:02.662Z,12.60
2019-02-16T11:59:02.946Z,12.58
2019-02-16T12:00:02.623Z,12.55
2019-02-16T12:01:02.610Z,12.54
2019-02-16T12:02:02.594Z,12.55
2019-02-16T12:03:02.589Z,12.55
2019-02-16T12:04:02.591Z,12.53
2019-02-16T12:05:02.576Z,12.57
2019-02-16T12:06:02.550Z,12.53
2019-02-16T12:07:02.545Z,12.43
2019-02-16T12:08:02.526Z,12.57
2019-02-16T12:09:02.526Z,12.54
2019-02-16T12:10:02.514Z,12.53
2019-02-16T12:11:02.506Z,12.57
2019-02-16T12:12:02.491Z,12.50
2019-02-16T12:13:02.472Z,12.61
2019-02-16T12:14:02.471Z,12.50
2019-02-16T12:15:02.460Z,12.55
2019-02-16T12:16:02.451Z,12.68
2019-02-16T12:17:02.437Z,12.61
2019-02-16T12:18:02.420Z,12.65
2019-02-16T12:19:02.401Z,12.78
2019-02-16T12:20:02.396Z,12.79
2019-02-16T12:21:02.385Z,12.78
2019-02-16T12:22:02.389Z,12.85
2019-02-16T12:23:02.357Z,12.80
2019-02-16T12:24:02.356Z,12.80
2019-02-16T12:25:05.701Z,12.86
2019-02-16T12:26:02.332Z,12.85
2019-02-16T12:27:02.327Z,12.90
2019-02-16T12:28:02.325Z,12.95
2019-02-16T12:29:02.295Z,13.01
2019-02-16T12:30:02.285Z,13.03
2019-02-16T12:31:02.302Z,13.08
2019-02-16T12:32:02.271Z,13.18
2019-02-16T12:33:02.280Z,13.15
2019-02-16T12:34:02.241Z,13.22
2019-02-16T12:35:02.233Z,13.35
2019-02-16T12:36:02.223Z,13.30
2019-02-16T12:37:02.211Z,13.33
2019-02-16T12:38:02.246Z,13.23
2019-02-16T12:39:04.876Z,13.28
2019-02-16T12:40:02.175Z,13.18
2019-02-16T12:41:02.168Z,13.16
2019-02-16T12:42:02.157Z,13.12
2019-02-16T12:43:02.146Z,13.16
2019-02-16T12:44:02.193Z,13.11
2019-02-16T12:45:02.141Z,13.09
2019-02-16T12:46:02.106Z,13.11
2019-02-16T12:47:02.106Z,13.11
2019-02-16T12:48:02.091Z,13.16
2019-02-16T12:49:02.082Z,13.18
2019-02-16T12:50:02.091Z,13.19
2019-02-16T12:51:02.087Z,13.31
2019-02-16T12:52:02.048Z,13.30
2019-02-16T12:53:02.032Z,13.31
2019-02-16T12:54:02.021Z,13.27
2019-02-16T12:55:02.018Z,13.33
2019-02-16T12:56:02.009Z,13.28
2019-02-16T12:57:01.986Z,13.31
2019-02-16T12:58:02.047Z,13.30
2019-02-16T12:59:01.962Z,13.30
2019-02-16T13:00:01.957Z,13.30
2019-02-16T13:01:01.961Z,13.35
2019-02-16T13:02:01.943Z,13.37
2019-02-16T13:03:01.918Z,13.38
2019-02-16T13:04:01.938Z,13.31
2019-02-16T13:05:01.895Z,13.33
2019-02-16T13:06:01.888Z,13.35
2019-02-16T13:07:01.895Z,13.38
2019-02-16T13:08:01.989Z,13.39
2019-02-16T13:09:01.869Z,13.41
2019-02-16T13:10:01.856Z,13.39
2019-02-16T13:11:01.836Z,13.41
2019-02-16T13:12:01.825Z,13.30